Time;durP1;ratioP1;P1;durP2;ratioP2;P2;SDS_P1;SDS_P2;PMS_P1;PMS_P2;Temp;Humidity;BMP_temperature;BMP_pressure;BME280_temperature;BME280_humidity;BME280_pressure;Samples;Min_cycle;Max_cycle;Signal;HPM_P1;HPM_P2
2021/10/07 00:00:51;;;;;;;4.30;2.43;;;10.20;80.90;;;9.03;86.03;98694.13;5029497;28;20520;-75
2021/10/07 00:03:18;;;;;;;3.73;2.30;;;10.20;81.30;;;9.05;84.94;98687.53;5024415;28;20464;-75
2021/10/07 00:05:45;;;;;;;2.77;2.10;;;10.20;80.60;;;9.21;84.58;98691.84;5029513;28;20573;-74
2021/10/07 00:08:12;;;;;;;2.70;1.77;;;10.30;80.60;;;9.11;85.08;98691.34;5032501;28;20625;-74
2021/10/07 00:10:39;;;;;;;3.60;2.00;;;10.30;80.20;;;9.03;84.37;98672.56;5029224;28;20461;-74
2021/10/07 00:13:07;;;;;;;4.40;2.20;;;10.30;80.00;;;9.19;84.33;98691.19;5046493;28;20502;-75
2021/10/07 00:15:34;;;;;;;2.80;2.20;;;10.30;79.90;;;9.02;84.62;98687.06;5027720;28;20552;-74
2021/10/07 00:18:01;;;;;;;6.67;2.50;;;10.30;80.10;;;9.07;85.55;98690.88;5039588;28;21005;-74
2021/10/07 00:20:28;;;;;;;3.30;2.50;;;10.30;80.50;;;9.07;85.39;98695.41;5030411;28;20473;-74
2021/10/07 00:22:56;;;;;;;3.20;2.40;;;10.30;80.20;;;8.99;85.16;98690.97;5031421;28;20556;-74
2021/10/07 00:25:22;;;;;;;3.80;2.67;;;10.20;80.30;;;9.19;85.25;98693.91;5029337;28;20528;-74
2021/10/07 00:27:50;;;;;;;3.87;2.30;;;10.20;80.60;;;9.27;84.23;98700.22;5031391;28;20541;-74
2021/10/07 00:30:20;;;;;;;3.97;2.37;;;10.30;80.10;;;9.23;84.24;98697.06;5029402;28;20465;-73
2021/10/07 00:32:54;;;;;;;3.13;2.80;;;10.40;79.90;;;9.22;84.83;98698.09;5028457;28;20460;-74
2021/10/07 00:35:43;;;;;;;3.73;2.50;;;10.40;80.10;;;9.16;85.40;98701.53;5026985;28;20490;-75
2021/10/07 00:40:55;;;;;;;4.10;2.77;;;10.30;80.40;;;9.15;85.45;98702.56;5027478;28;20474;-72
2021/10/07 00:43:22;;;;;;;6.00;3.13;;;10.30;80.20;;;9.13;85.00;98704.59;5029750;28;20493;-72
2021/10/07 00:45:56;;;;;;;3.23;2.60;;;10.30;80.30;;;9.18;84.78;98703.00;5026919;28;20478;-72
2021/10/07 00:48:24;;;;;;;5.70;2.50;;;10.30;80.20;;;9.11;84.59;98695.88;5028814;28;20449;-73
2021/10/07 00:50:52;;;;;;;3.90;2.80;;;10.30;80.20;;;9.17;84.84;98709.44;5025796;28;20455;-73
2021/10/07 00:53:21;;;;;;;4.30;2.60;;;10.30;80.30;;;9.21;85.03;98707.19;5029257;28;20588;-72
2021/10/07 00:55:48;;;;;;;3.93;2.80;;;10.40;80.40;;;9.13;85.49;98704.59;5028169;28;21069;-73
2021/10/07 00:58:17;;;;;;;4.33;3.00;;;10.30;80.70;;;9.24;85.43;98711.34;5029445;28;20509;-72
2021/10/07 01:00:44;;;;;;;3.30;2.67;;;10.30;81.00;;;9.17;85.43;98705.88;5027752;28;20811;-74
2021/10/07 01:03:13;;;;;;;4.33;3.30;;;10.30;81.00;;;9.21;86.16;98707.19;5028548;28;20667;-73
2021/10/07 01:05:41;;;;;;;3.90;2.77;;;10.40;81.30;;;9.06;86.65;98699.97;5043762;28;21014;-74
2021/10/07 01:08:08;;;;;;;3.90;3.50;;;10.30;81.30;;;9.01;87.12;98702.38;5044756;28;20546;-73
2021/10/07 01:10:35;;;;;;;4.70;3.30;;;10.30;81.70;;;9.01;86.96;98701.56;5029145;28;20959;-72
2021/10/07 01:13:03;;;;;;;4.80;3.00;;;10.30;81.50;;;8.96;87.20;98701.31;5026538;28;20517;-73
2021/10/07 01:15:31;;;;;;;3.13;2.50;;;10.20;82.00;;;9.16;86.27;98706.91;5029436;28;20478;-73
2021/10/07 01:17:58;;;;;;;3.70;3.00;;;10.30;81.60;;;8.96;86.55;98688.66;5025973;28;20500;-73
2021/10/07 01:20:26;;;;;;;3.63;2.90;;;10.30;81.30;;;9.09;86.72;98695.22;5029110;28;20458;-73
2021/10/07 01:22:53;;;;;;;3.57;2.60;;;10.30;81.90;;;9.16;85.56;98688.88;5027095;28;20459;-74
2021/10/07 01:25:21;;;;;;;3.60;3.27;;;10.30;81.70;;;9.01;86.45;98688.09;5028340;28;20470;-74
2021/10/07 01:27:55;;;;;;;4.37;2.77;;;10.20;81.80;;;9.02;86.85;98696.00;5028484;28;20465;-74
2021/10/07 01:30:22;;;;;;;3.00;2.70;;;10.20;82.10;;;9.02;86.59;98693.31;5030526;28;20455;-74
2021/10/07 01:32:49;;;;;;;3.63;2.90;;;10.20;82.30;;;9.02;87.44;98696.00;5023566;28;20989;-72
2021/10/07 01:35:16;;;;;;;3.37;2.67;;;10.20;82.70;;;9.11;87.69;98703.97;5028431;28;20586;-73
2021/10/07 01:37:44;;;;;;;6.30;3.00;;;10.30;83.20;;;9.25;87.10;98704.94;5028345;28;20994;-72
2021/10/07 01:40:12;;;;;;;4.80;2.70;;;10.30;83.00;;;9.19;86.87;98703.88;5027924;28;20530;-73
2021/10/07 01:42:41;;;;;;;3.00;2.70;;;10.40;82.90;;;8.98;88.87;98699.25;5027792;28;21006;-73
2021/10/07 01:45:10;;;;;;;2.80;2.60;;;10.30;83.80;;;8.89;89.61;98714.69;5030143;28;20558;-73
2021/10/07 01:47:37;;;;;;;3.37;3.07;;;10.20;84.60;;;8.93;89.37;98710.59;5025325;28;20490;-73
2021/10/07 01:50:06;;;;;;;3.40;2.83;;;10.20;85.20;;;8.75;90.10;98703.75;5029083;28;20464;-73
2021/10/07 01:52:33;;;;;;;4.70;3.13;;;10.10;85.50;;;8.73;90.70;98711.19;5023828;28;20490;-72
2021/10/07 01:55:02;;;;;;;2.63;2.43;;;10.00;86.10;;;8.68;90.89;98713.56;5028188;28;20471;-72
2021/10/07 01:57:29;;;;;;;4.07;2.53;;;10.00;86.60;;;8.59;90.60;98723.59;5025927;28;20468;-73
2021/10/07 01:59:56;;;;;;;5.00;2.77;;;9.90;87.20;;;8.55;90.02;98708.00;5025992;28;21025;-72
2021/10/07 02:02:23;;;;;;;3.50;3.00;;;9.90;87.00;;;8.48;89.69;98706.03;5025214;28;20565;-73
2021/10/07 02:04:50;;;;;;;2.77;2.57;;;9.90;87.50;;;8.63;89.28;98729.47;5028989;28;20470;-72
2021/10/07 02:07:17;;;;;;;4.40;2.80;;;9.80;86.80;;;8.49;90.51;98725.69;5025666;28;20454;-72
2021/10/07 02:09:44;;;;;;;3.70;2.80;;;9.70;87.60;;;8.47;90.92;98731.28;5033048;28;20444;-72
2021/10/07 02:12:12;;;;;;;3.30;2.80;;;9.70;88.50;;;8.54;89.97;98719.78;5027658;28;20473;-72
2021/10/07 02:14:40;;;;;;;4.37;3.60;;;9.80;87.70;;;8.56;90.28;98736.59;5027875;28;20475;-72
2021/10/07 02:17:07;;;;;;;3.20;2.90;;;9.80;88.00;;;8.59;90.01;98728.19;5026365;28;20459;-72
2021/10/07 02:19:34;;;;;;;3.23;2.90;;;9.80;88.00;;;8.50;90.10;98730.94;5026970;28;20454;-72
2021/10/07 02:22:03;;;;;;;4.00;3.20;;;9.80;88.00;;;8.48;90.92;98743.72;5026233;28;20478;-72
2021/10/07 02:24:30;;;;;;;3.70;3.10;;;9.70;88.70;;;8.53;91.32;98742.38;5027545;28;20502;-73
2021/10/07 02:26:57;;;;;;;6.00;2.90;;;9.80;89.30;;;8.64;90.73;98739.22;5028378;28;20554;-73
2021/10/07 02:29:27;;;;;;;3.80;2.60;;;9.80;89.20;;;8.83;89.12;98740.53;5028284;28;20458;-72
2021/10/07 02:31:54;;;;;;;4.53;2.77;;;9.90;88.40;;;8.85;89.06;98740.31;5025424;28;20635;-72
2021/10/07 02:34:21;;;;;;;5.63;2.60;;;10.00;86.40;;;8.73;88.72;98748.91;5027537;28;21010;-73
2021/10/07 02:36:48;;;;;;;3.83;2.90;;;9.90;86.80;;;8.57;89.82;98749.03;5028296;28;20557;-73
2021/10/07 02:39:14;;;;;;;2.60;2.40;;;9.80;87.70;;;8.58;89.98;98740.78;5042424;28;20538;-73
2021/10/07 02:41:41;;;;;;;2.83;2.63;;;9.80;88.10;;;8.70;89.74;98753.81;5026075;28;20478;-73
2021/10/07 02:44:09;;;;;;;3.80;2.90;;;9.80;88.00;;;8.74;89.81;98758.66;5027599;28;20544;-73
2021/10/07 02:46:37;;;;;;;3.77;2.90;;;9.90;87.50;;;8.67;89.75;98763.09;5026293;28;20633;-73
2021/10/07 02:49:05;;;;;;;3.27;2.97;;;9.90;87.80;;;8.61;90.63;98766.53;5027412;28;20467;-73
2021/10/07 02:51:32;;;;;;;3.27;2.93;;;9.80;88.20;;;8.63;90.47;98759.09;5028256;28;20486;-73
2021/10/07 02:53:59;;;;;;;3.37;3.07;;;9.90;88.30;;;8.61;90.42;98756.56;5028394;28;20454;-72
2021/10/07 02:56:26;;;;;;;3.00;2.60;;;9.90;88.20;;;8.61;90.13;98756.56;5036892;28;20677;-72
2021/10/07 02:58:53;;;;;;;3.60;2.60;;;9.80;88.60;;;8.52;90.91;98760.41;5025590;28;20469;-72
2021/10/07 03:01:20;;;;;;;4.40;2.73;;;9.80;89.00;;;8.60;90.60;98775.63;5022214;28;20486;-72
2021/10/07 03:03:48;;;;;;;2.93;2.53;;;9.80;89.10;;;8.57;90.65;98767.91;5028705;28;20516;-72
2021/10/07 03:06:15;;;;;;;4.30;2.57;;;9.80;89.10;;;8.57;90.37;98760.66;5032102;28;20514;-72
2021/10/07 03:08:42;;;;;;;2.70;2.50;;;9.80;89.10;;;8.62;90.81;98763.63;5029206;28;20472;-72
2021/10/07 03:11:09;;;;;;;3.47;2.53;;;9.70;89.60;;;8.62;90.69;98758.25;5031444;28;20490;-74
2021/10/07 03:13:36;;;;;;;5.10;3.20;;;9.80;89.30;;;8.59;91.06;98760.50;5028598;28;20464;-73
2021/10/07 03:16:03;;;;;;;8.17;2.60;;;9.80;89.10;;;8.62;90.60;98760.94;5028629;28;20616;-73
2021/10/07 03:18:30;;;;;;;3.90;2.70;;;9.80;89.30;;;8.65;90.50;98762.44;5029130;28;20583;-73
2021/10/07 03:20:58;;;;;;;8.03;3.00;;;9.90;89.10;;;8.73;90.50;98770.44;5029028;28;20472;-73
2021/10/07 03:23:25;;;;;;;3.03;2.70;;;9.90;88.20;;;8.64;91.04;98772.41;5028771;28;20458;-73
2021/10/07 03:25:52;;;;;;;2.93;2.60;;;9.90;88.40;;;8.62;91.04;98769.03;5025881;28;20518;-72
2021/10/07 03:28:19;;;;;;;6.93;3.23;;;9.90;88.90;;;8.67;90.73;98779.25;5030427;28;20464;-72
2021/10/07 03:30:46;;;;;;;3.60;2.97;;;9.90;88.90;;;8.69;90.59;98773.69;5030710;28;20466;-73
2021/10/07 03:33:13;;;;;;;4.27;2.97;;;9.90;88.90;;;8.60;90.27;98779.16;5028151;28;20587;-72
2021/10/07 03:35:40;;;;;;;5.13;2.70;;;9.90;88.80;;;8.70;90.56;98770.78;5031325;28;20625;-73
2021/10/07 03:38:09;;;;;;;4.43;3.07;;;9.90;89.00;;;8.64;90.51;98777.78;5031528;28;20558;-73
2021/10/07 03:40:35;;;;;;;3.50;2.70;;;9.80;89.20;;;8.77;90.91;98774.44;5030542;28;20991;-73
2021/10/07 03:43:02;;;;;;;5.87;2.63;;;9.90;89.40;;;8.92;90.00;98773.59;5029750;28;20560;-73
2021/10/07 03:45:30;;;;;;;4.57;3.40;;;10.00;87.50;;;8.83;89.57;98785.47;5029497;28;20568;-73
2021/10/07 03:47:56;;;;;;;4.67;3.30;;;10.00;86.80;;;8.79;90.57;98785.00;5029204;28;20985;-72
2021/10/07 03:50:24;;;;;;;6.33;2.93;;;10.00;87.10;;;8.89;89.64;98784.75;5029614;28;20582;-72
2021/10/07 03:52:51;;;;;;;6.00;3.10;;;10.00;87.40;;;8.93;89.44;98786.88;5030527;28;20451;-73
2021/10/07 03:55:19;;;;;;;3.90;3.17;;;10.10;86.60;;;8.88;89.78;98785.78;5029739;28;20561;-73
2021/10/07 03:57:46;;;;;;;5.57;3.50;;;10.10;86.60;;;9.07;89.09;98781.66;5029354;28;20468;-73
2021/10/07 04:00:14;;;;;;;4.90;3.37;;;10.10;86.60;;;9.06;88.78;98786.25;5030459;28;21027;-73
2021/10/07 04:02:41;;;;;;;3.80;3.40;;;10.20;86.80;;;9.00;89.09;98792.34;5033327;28;21090;-73
2021/10/07 04:05:08;;;;;;;5.13;3.67;;;10.20;86.40;;;9.02;89.18;98790.34;5029577;28;20478;-72
2021/10/07 04:07:35;;;;;;;6.17;3.60;;;10.20;86.60;;;9.00;90.00;98797.75;5031455;28;20494;-73
2021/10/07 04:10:03;;;;;;;3.80;3.50;;;10.20;87.30;;;8.84;90.84;98804.19;5030142;28;20540;-73
2021/10/07 04:12:31;;;;;;;7.23;3.80;;;10.10;87.70;;;8.92;90.86;98800.56;5032730;28;20858;-73
2021/10/07 04:14:58;;;;;;;4.97;3.60;;;10.20;88.50;;;9.13;90.34;98807.91;5027370;28;20482;-73
2021/10/07 04:17:25;;;;;;;13.43;3.30;;;10.20;88.20;;;9.09;89.59;98808.44;5030796;28;20508;-74
2021/10/07 04:19:52;;;;;;;5.00;3.40;;;10.20;87.60;;;8.99;90.25;98811.44;5044858;28;20460;-73
2021/10/07 04:22:19;;;;;;;4.10;3.70;;;10.20;87.70;;;8.96;90.14;98812.63;5031181;28;20477;-73
2021/10/07 04:24:46;;;;;;;4.13;3.80;;;10.10;87.50;;;9.18;89.61;98815.44;5028912;28;20560;-74
2021/10/07 04:27:14;;;;;;;6.87;5.90;;;10.30;87.70;;;9.25;87.04;98826.28;5037289;28;20601;-74
2021/10/07 04:29:43;;;;;;;6.00;5.43;;;10.30;84.00;;;9.10;86.86;98813.66;5026402;28;20466;-73
2021/10/07 04:32:10;;;;;;;5.70;5.00;;;10.30;84.00;;;9.21;86.53;98802.38;5027843;28;20557;-72
2021/10/07 04:34:37;;;;;;;5.90;5.30;;;10.30;84.00;;;9.19;86.04;98817.09;5022888;28;20576;-77
2021/10/07 04:37:05;;;;;;;6.80;5.80;;;10.40;83.10;;;9.38;85.86;98825.63;5026027;28;20493;-74
2021/10/07 04:39:32;;;;;;;7.13;5.60;;;10.40;83.00;;;9.18;85.69;98804.66;5020457;28;20462;-74
2021/10/07 04:41:59;;;;;;;7.63;5.83;;;10.50;82.80;;;9.49;85.05;98835.94;5027895;28;20564;-74
2021/10/07 04:44:26;;;;;;;8.87;6.30;;;10.50;82.60;;;9.54;86.25;98833.50;5029579;28;21251;-74
2021/10/07 04:46:54;;;;;;;9.30;6.47;;;10.60;83.60;;;9.62;87.01;98829.88;5026800;28;20457;-74
2021/10/07 04:49:21;;;;;;;9.73;7.60;;;10.70;83.90;;;9.67;85.40;98843.63;5029902;28;20455;-74
2021/10/07 04:51:49;;;;;;;6.40;5.80;;;10.70;82.50;;;9.70;86.30;98842.41;5031437;28;20482;-75
2021/10/07 04:54:16;;;;;;;8.93;8.00;;;10.70;83.80;;;9.76;85.83;98845.19;5026407;28;21073;-75
2021/10/07 04:56:43;;;;;;;7.53;6.80;;;10.80;83.00;;;9.98;86.23;98841.69;5041787;28;21148;-75
2021/10/07 04:59:10;;;;;;;8.57;7.77;;;10.90;84.20;;;9.67;85.47;98835.53;5021688;28;20455;-75
2021/10/07 05:01:37;;;;;;;10.10;8.00;;;10.90;82.00;;;9.73;84.15;98847.44;5043519;28;20451;-79
2021/10/07 05:04:05;;;;;;;8.40;7.60;;;10.80;81.20;;;9.72;83.24;98846.59;5025034;28;21074;-80
2021/10/07 05:06:32;;;;;;;11.23;10.23;;;10.80;80.10;;;9.59;84.37;98844.56;5027107;28;20478;-77
2021/10/07 05:08:59;;;;;;;9.20;8.30;;;10.70;80.50;;;9.88;83.75;98848.22;5026986;28;20494;-74
2021/10/07 05:11:26;;;;;;;11.00;9.33;;;10.90;80.80;;;9.87;82.38;98851.13;5029725;28;20539;-76
2021/10/07 05:13:53;;;;;;;9.23;8.30;;;10.90;80.00;;;9.87;82.63;98851.13;5029000;28;21045;-74
2021/10/07 05:16:20;;;;;;;10.03;8.30;;;11.00;80.60;;;9.87;85.56;98857.34;5019406;28;20865;-72
2021/10/07 05:18:47;;;;;;;10.07;8.50;;;10.90;81.60;;;9.63;84.39;98831.53;5023564;28;20467;-72
2021/10/07 05:21:15;;;;;;;9.33;8.40;;;10.90;81.40;;;9.73;84.65;98850.13;5020747;28;20475;-80
2021/10/07 05:23:42;;;;;;;26.33;18.43;;;10.90;80.60;;;9.86;86.05;98861.06;5024147;28;20473;-84
2021/10/07 05:26:09;;;;;;;11.63;10.30;;;10.90;82.80;;;9.67;82.70;98859.00;5025283;28;20490;-81
2021/10/07 05:28:37;;;;;;;10.30;9.20;;;10.80;80.20;;;9.68;83.07;98863.34;5024797;28;21027;-80
2021/10/07 05:31:04;;;;;;;11.63;9.73;;;10.80;79.80;;;9.92;84.03;98868.41;5024319;28;20490;-78
2021/10/07 05:33:31;;;;;;;10.23;9.00;;;10.90;81.30;;;10.00;82.93;98867.44;5024564;28;20576;-79
2021/10/07 05:35:58;;;;;;;8.33;7.37;;;11.00;80.50;;;9.91;83.32;98861.34;5019197;28;20523;-70
2021/10/07 05:38:26;;;;;;;9.17;7.83;;;11.00;80.30;;;9.77;83.56;98856.81;5021182;28;20457;-72
2021/10/07 05:40:53;;;;;;;10.73;9.03;;;10.90;79.60;;;9.64;85.25;98861.03;5023948;28;20881;-69
2021/10/07 05:43:20;;;;;;;11.47;9.73;;;10.80;81.10;;;9.82;81.95;98848.16;5025066;28;20477;-70
2021/10/07 05:45:47;;;;;;;10.73;9.53;;;10.90;80.00;;;9.96;83.38;98865.34;5021829;28;20483;-70
2021/10/07 05:48:14;;;;;;;10.30;9.30;;;11.00;80.90;;;9.81;82.83;98858.13;5016734;28;20476;-69
2021/10/07 05:50:41;;;;;;;11.23;9.53;;;10.90;80.30;;;9.53;82.80;98829.16;5019278;28;20535;-69
2021/10/07 05:53:08;;;;;;;12.53;9.80;;;10.80;79.20;;;9.72;82.41;98851.16;5018676;28;20532;-69
2021/10/07 05:55:36;;;;;;;11.80;10.27;;;10.90;79.00;;;9.47;83.75;98862.25;5022440;28;20484;-69
2021/10/07 05:58:03;;;;;;;9.80;8.37;;;10.70;79.60;;;9.43;83.16;98867.22;5015772;28;20456;-70
2021/10/07 06:00:30;;;;;;;10.10;9.10;;;10.60;79.10;;;9.48;84.25;98853.16;5021293;28;20498;-70
2021/10/07 06:02:57;;;;;;;11.57;10.37;;;10.60;80.90;;;9.57;84.05;98864.69;5020320;28;20540;-70
2021/10/07 06:05:24;;;;;;;11.57;10.20;;;10.60;80.50;;;9.38;83.13;98876.88;5022912;28;20486;-68
2021/10/07 06:07:52;;;;;;;14.57;11.03;;;10.60;79.30;;;9.42;83.48;98870.06;5024520;28;20462;-69
2021/10/07 06:10:19;;;;;;;10.53;9.33;;;10.60;79.30;;;9.75;83.00;98875.91;5024274;28;20462;-71
2021/10/07 06:12:47;;;;;;;9.67;8.67;;;10.80;80.00;;;9.95;82.06;98869.91;5021499;28;20575;-70
2021/10/07 06:15:14;;;;;;;8.80;7.90;;;11.00;79.20;;;10.07;81.76;98875.63;5018618;28;20521;-69
2021/10/07 06:17:41;;;;;;;12.13;10.23;;;11.10;78.80;;;9.80;81.05;98883.44;5018033;28;20486;-72
2021/10/07 06:20:19;;;;;;;8.73;7.83;;;11.00;77.30;;;9.71;81.84;98881.88;5021297;28;20557;-69
2021/10/07 06:22:48;;;;;;;10.07;8.97;;;10.90;78.30;;;9.97;81.78;98888.63;5022984;28;20477;-69
2021/10/07 06:25:16;;;;;;;9.47;7.90;;;11.00;78.70;;;10.05;81.88;98888.47;5020877;28;20967;-68
2021/10/07 06:27:43;;;;;;;8.53;7.43;;;11.10;79.00;;;10.20;82.30;98894.66;5024177;28;20457;-68
2021/10/07 06:30:11;;;;;;;10.50;9.40;;;11.10;79.50;;;10.03;82.20;98898.63;5027027;28;20524;-68
2021/10/07 06:32:38;;;;;;;11.50;8.93;;;11.20;78.80;;;9.82;82.71;98877.84;5021785;28;20464;-70
2021/10/07 06:35:07;;;;;;;10.77;8.90;;;11.10;78.70;;;9.99;83.11;98910.84;5025815;28;20476;-71
2021/10/07 06:37:34;;;;;;;12.53;10.87;;;11.10;79.20;;;9.80;83.58;98918.53;5020149;28;20518;-70
2021/10/07 06:40:01;;;;;;;16.47;9.20;;;11.00;79.30;;;9.64;85.09;98925.81;5019532;28;20931;-70
2021/10/07 06:42:28;;;;;;;8.80;8.00;;;10.90;80.30;;;9.76;84.38;98917.22;5023850;28;20673;-69
2021/10/07 06:44:55;;;;;;;9.70;8.60;;;10.90;80.30;;;9.74;83.87;98917.41;5018934;28;20474;-76
2021/10/07 06:47:25;;;;;;;9.43;8.47;;;10.90;80.00;;;9.86;83.77;98914.25;5019994;28;20553;-77
2021/10/07 06:49:52;;;;;;;9.27;8.47;;;11.00;79.60;;;9.94;82.72;98916.81;5024986;28;20459;-75
2021/10/07 06:52:19;;;;;;;13.47;8.90;;;11.00;79.40;;;10.16;83.76;98920.41;5021910;28;20557;-75
2021/10/07 06:54:46;;;;;;;10.27;9.27;;;11.20;80.60;;;10.14;83.25;98919.75;5024892;28;20566;-76
2021/10/07 06:57:13;;;;;;;9.33;8.03;;;11.20;79.80;;;10.03;82.28;98923.78;5021785;28;20486;-75
2021/10/07 06:59:40;;;;;;;9.20;8.30;;;11.20;78.80;;;9.98;82.26;98931.59;5026663;28;20490;-75
2021/10/07 07:02:08;;;;;;;9.97;8.97;;;11.20;78.70;;;10.01;83.79;98933.09;5017924;28;21418;-75
2021/10/07 07:04:36;;;;;;;11.77;9.20;;;11.20;79.60;;;10.01;83.35;98922.28;5022279;28;20474;-76
2021/10/07 07:07:03;;;;;;;10.63;9.37;;;11.20;79.50;;;10.08;83.60;98934.00;5019889;28;20490;-75
2021/10/07 07:09:30;;;;;;;12.30;10.27;;;11.20;80.00;;;10.21;82.73;98928.75;5027574;28;20550;-75
2021/10/07 07:11:57;;;;;;;9.67;8.77;;;11.30;79.30;;;10.17;82.48;98930.16;5023338;28;20979;-76
2021/10/07 07:14:24;;;;;;;13.33;8.77;;;11.30;79.30;;;10.29;82.94;98935.06;5024545;28;20466;-77
2021/10/07 07:16:51;;;;;;;11.60;9.30;;;11.40;79.60;;;10.18;82.72;98929.13;5022543;28;20485;-71
2021/10/07 07:19:18;;;;;;;11.50;9.53;;;11.40;78.90;;;10.16;82.57;98928.50;5020021;28;20470;-70
2021/10/07 07:21:46;;;;;;;11.63;10.40;;;11.30;78.70;;;10.27;82.68;98937.94;5020625;28;20549;-70
2021/10/07 07:24:13;;;;;;;11.13;9.83;;;11.40;78.80;;;10.34;81.27;98938.03;5015666;28;20487;-70
2021/10/07 07:26:40;;;;;;;10.23;9.03;;;11.40;78.20;;;10.66;79.73;98944.00;5020838;28;20535;-70
2021/10/07 07:29:07;;;;;;;11.13;9.97;;;11.70;77.70;;;10.69;79.35;98945.47;5022090;28;20574;-70
2021/10/07 07:31:34;;;;;;;10.80;9.70;;;11.80;76.90;;;10.70;79.83;98942.59;5015070;28;20463;-70
2021/10/07 07:34:01;;;;;;;10.50;9.50;;;11.90;77.00;;;10.94;78.88;98943.19;5019285;28;20519;-69
2021/10/07 07:36:29;;;;;;;9.40;8.40;;;12.00;76.70;;;11.04;76.46;98953.69;5019405;28;20207;-78
2021/10/07 07:38:57;;;;;;;10.70;9.70;;;12.20;74.70;;;11.02;77.88;98953.03;5023731;28;20466;-78
2021/10/07 07:41:24;;;;;;;10.20;9.10;;;12.10;75.00;;;11.03;78.28;98955.56;5022362;28;20451;-69
2021/10/07 07:43:51;;;;;;;11.20;9.37;;;12.10;75.30;;;11.04;77.52;98954.53;5022389;28;20528;-70
2021/10/07 07:46:20;;;;;;;10.07;9.00;;;12.20;74.60;;;11.32;75.05;98959.13;5023715;28;20500;-70
2021/10/07 07:48:48;;;;;;;8.60;7.90;;;12.40;73.00;;;11.36;75.95;98956.81;5024119;28;20457;-71
2021/10/07 07:51:15;;;;;;;10.20;9.20;;;12.40;73.30;;;11.55;75.29;98968.00;5030284;28;20458;-71
2021/10/07 07:53:42;;;;;;;8.90;7.90;;;12.50;73.10;;;11.20;75.17;98963.38;5024118;28;20486;-71
2021/10/07 07:56:11;;;;;;;9.23;8.23;;;12.50;72.10;;;11.27;75.51;98977.78;5025446;28;21009;-71
2021/10/07 07:58:38;;;;;;;9.80;8.80;;;12.50;72.30;;;10.82;76.64;98971.78;5027312;28;20480;-71
2021/10/07 08:01:05;;;;;;;10.80;8.70;;;12.20;71.70;;;10.72;77.01;98956.75;5028919;28;20880;-71
2021/10/07 08:03:33;;;;;;;10.40;9.30;;;12.10;72.90;;;10.99;75.59;98983.19;5026948;28;21070;-71
2021/10/07 08:06:00;;;;;;;10.77;9.67;;;12.10;71.80;;;10.84;75.87;98983.25;5026903;28;20703;-71
2021/10/07 08:08:27;;;;;;;12.20;9.13;;;12.00;71.90;;;11.00;75.54;98980.28;5024741;28;20474;-71
2021/10/07 08:10:54;;;;;;;8.47;7.67;;;12.10;72.20;;;11.37;75.34;98974.72;5023943;28;20541;-71
2021/10/07 08:13:23;;;;;;;16.43;10.37;;;12.40;72.40;;;11.39;73.98;98977.25;5025567;28;20545;-71
2021/10/07 08:15:51;;;;;;;10.40;7.30;;;12.50;71.20;;;11.47;73.36;98986.06;5029296;28;20577;-72
2021/10/07 08:18:18;;;;;;;7.97;7.13;;;12.60;70.70;;;11.46;73.68;98989.78;5024744;28;20458;-71
2021/10/07 08:20:46;;;;;;;9.10;8.20;;;12.60;70.20;;;11.70;73.60;98984.13;5027875;28;20462;-74
2021/10/07 08:23:13;;;;;;;8.10;7.30;;;12.70;70.90;;;11.83;73.71;98976.06;5025362;28;20262;-73
2021/10/07 08:25:41;;;;;;;8.50;7.73;;;12.90;70.70;;;11.82;72.40;98993.34;5029025;28;20929;-69
2021/10/07 08:28:09;;;;;;;8.23;7.43;;;12.90;70.00;;;11.95;71.29;98987.16;5027859;28;20568;-75
2021/10/07 08:30:38;;;;;;;8.57;7.60;;;13.00;68.90;;;11.92;71.77;98986.75;5024967;28;20494;-74
2021/10/07 08:33:05;;;;;;;8.97;7.00;;;13.10;68.70;;;12.05;72.11;98994.94;5040476;28;20766;-75
2021/10/07 08:35:32;;;;;;;8.10;7.30;;;13.10;69.40;;;12.21;71.13;98999.19;5025574;28;20832;-74
2021/10/07 08:37:59;;;;;;;8.20;7.40;;;13.20;68.70;;;12.66;69.62;98993.31;5019193;28;21007;-74
2021/10/07 08:40:27;;;;;;;9.20;7.57;;;13.50;68.20;;;12.60;69.39;98994.97;5016236;28;20802;-74
2021/10/07 08:42:54;;;;;;;11.50;7.80;;;13.60;67.60;;;12.17;70.43;99006.06;5029813;28;20474;-74
2021/10/07 08:45:21;;;;;;;10.20;7.80;;;13.50;67.00;;;12.15;70.57;99008.97;5022590;28;20477;-75
2021/10/07 08:47:52;;;;;;;10.43;7.90;;;13.30;67.30;;;12.13;70.80;99004.78;5025695;28;20464;-74
2021/10/07 08:50:20;;;;;;;10.13;8.30;;;13.30;67.70;;;12.45;70.45;99013.25;5028391;28;21024;-76
2021/10/07 08:52:47;;;;;;;7.50;6.80;;;13.30;68.00;;;12.32;70.32;99016.75;5025566;28;20624;-74
2021/10/07 08:55:14;;;;;;;11.83;9.00;;;13.30;67.60;;;11.59;73.09;99021.50;5030464;28;20472;-74
2021/10/07 08:57:42;;;;;;;8.10;7.30;;;13.00;67.90;;;12.22;72.57;99014.41;5024194;28;20461;-75
2021/10/07 09:00:12;;;;;;;8.37;7.47;;;13.00;69.00;;;12.32;70.99;99019.44;5024862;28;20465;-76
2021/10/07 09:02:41;;;;;;;13.03;8.00;;;13.20;68.30;;;11.45;73.41;99023.31;5030442;28;20465;-74
2021/10/07 09:05:13;;;;;;;8.80;7.63;;;12.80;68.00;;;11.40;74.47;99033.03;5025903;28;20485;-76
2021/10/07 09:08:04;;;;;;;10.67;7.87;;;12.60;69.20;;;12.04;73.67;99029.34;5023719;28;20450;-73
2021/10/07 09:10:37;;;;;;;9.20;7.67;;;12.80;69.70;;;12.18;72.22;99024.81;5024953;28;20977;-74
2021/10/07 09:13:09;;;;;;;8.93;6.70;;;13.10;69.10;;;11.77;72.97;99028.31;5020421;28;20463;-74
2021/10/07 09:15:44;;;;;;;6.87;5.90;;;13.00;68.70;;;11.98;73.40;99019.28;5027925;28;20569;-76
2021/10/07 09:18:12;;;;;;;6.47;5.87;;;13.00;68.80;;;12.30;71.25;99021.53;5024871;28;20550;-77
2021/10/07 09:20:43;;;;;;;6.10;5.60;;;13.20;68.20;;;12.08;71.96;99023.50;5024333;28;20549;-78
2021/10/07 09:23:16;;;;;;;7.57;6.40;;;13.20;68.30;;;11.94;72.59;99031.53;5018214;28;20463;-82
2021/10/07 09:26:05;;;;;;;6.87;5.00;;;13.00;68.40;;;12.11;72.23;99026.66;5030760;28;20830;-81
2021/10/07 09:28:51;;;;;;;5.90;5.33;;;13.10;68.40;;;12.39;71.60;99023.03;5022986;28;20950;-72
2021/10/07 09:31:26;;;;;;;5.93;5.43;;;13.30;68.40;;;12.64;70.52;99027.91;5025000;28;20546;-78
2021/10/07 09:33:56;;;;;;;6.60;6.00;;;13.60;67.90;;;12.42;70.62;99025.34;5036010;28;20540;-78
2021/10/07 09:36:24;;;;;;;9.93;5.80;;;13.50;67.20;;;12.56;70.13;99022.69;5026405;28;20450;-77
2021/10/07 09:38:54;;;;;;;6.90;5.70;;;13.60;67.10;;;12.46;69.95;99031.19;5024588;28;20476;-78
2021/10/07 09:41:24;;;;;;;7.67;5.90;;;13.60;66.70;;;12.46;70.33;99032.00;5023178;28;20536;-76
2021/10/07 09:43:56;;;;;;;6.63;5.93;;;13.50;66.90;;;12.72;69.25;99022.31;5020494;28;20478;-77
2021/10/07 09:46:43;;;;;;;6.20;5.60;;;13.70;66.80;;;12.61;69.71;99026.44;5025840;28;20944;-77
2021/10/07 09:49:12;;;;;;;6.20;5.57;;;13.70;66.50;;;12.52;69.34;99021.41;5019729;28;20502;-76
2021/10/07 09:51:43;;;;;;;8.47;4.60;;;13.70;66.20;;;12.63;69.85;99015.38;5038720;28;20442;-77
2021/10/07 09:54:10;;;;;;;4.90;4.50;;;13.60;66.60;;;12.70;69.31;99018.09;5026078;28;20991;-77
2021/10/07 09:56:38;;;;;;;7.40;5.43;;;13.80;66.50;;;12.28;70.64;99024.47;5027229;28;20561;-76
2021/10/07 09:59:10;;;;;;;5.33;4.90;;;13.70;66.00;;;12.57;69.84;99022.44;5025365;28;20454;-77
2021/10/07 10:01:38;;;;;;;7.20;5.33;;;13.80;66.30;;;13.15;69.09;99017.56;5022207;28;20547;-78
2021/10/07 10:04:09;;;;;;;5.60;4.90;;;14.00;67.20;;;13.58;67.12;99017.19;5024955;28;20478;-78
2021/10/07 10:06:36;;;;;;;5.10;4.70;;;14.40;65.70;;;13.96;65.43;99020.22;5024805;28;20553;-78
2021/10/07 10:09:05;;;;;;;5.50;5.00;;;14.70;65.40;;;13.91;64.63;99014.59;5028011;28;20497;-78
2021/10/07 10:11:32;;;;;;;5.50;5.07;;;14.80;64.10;;;13.85;64.73;99010.84;5032383;28;20447;-78
2021/10/07 10:13:59;;;;;;;5.13;4.63;;;14.80;63.60;;;13.76;65.34;99009.41;5026422;28;20564;-77
2021/10/07 10:16:26;;;;;;;4.87;4.47;;;15.00;63.40;;;14.08;63.70;99010.38;5021938;28;20454;-76
2021/10/07 10:19:00;;;;;;;4.83;4.43;;;15.10;62.80;;;13.97;63.97;99011.03;5022940;28;20467;-73
2021/10/07 10:21:29;;;;;;;7.50;4.83;;;15.00;62.30;;;13.73;65.09;99014.22;5024456;28;21563;-78
2021/10/07 10:23:59;;;;;;;4.73;4.33;;;14.80;63.10;;;13.62;65.29;99014.03;5028019;28;20521;-77
2021/10/07 10:26:28;;;;;;;5.27;4.60;;;14.70;63.10;;;13.57;65.74;99010.06;5023838;28;20557;-77
2021/10/07 10:28:56;;;;;;;6.27;4.50;;;14.70;63.20;;;13.98;63.98;99020.84;5025051;28;20505;-77